NCAR-RAP Real-Time Weather Data

Output produced by METARs form (19 June 2019  11:25 UTC)
found at http://weather.rap.ucar.edu/surface/
 
KYKM 191053Z AUTO 29005KT 10SM CLR 12/03 A3004 RMK AO2 SLP166 T01220033
KYKM 190953Z AUTO 29004KT 10SM CLR 12/04 A3002 RMK AO2 SLP161 T01220044
KYKM 190853Z AUTO 00000KT 10SM CLR 15/04 A3002 RMK AO2 SLP159 T01500044 55004
KYKM 190753Z AUTO 32007KT 10SM CLR 17/04 A3001 RMK AO2 SLP157 T01720044 403000156
KYKM 190653Z AUTO 23003KT 10SM CLR 16/05 A3002 RMK AO2 SLP160 T01560050
KYKM 190553Z AUTO 30009KT 10SM CLR 18/06 A3003 RMK AO2 SLP163 T01780056 10289 20167 51014
KYKM 190453Z 32012KT 10SM CLR 19/06 A3003 RMK AO2 PK WND 31026/0414 SLP162 T01890056
KYKM 190353Z 33014G19KT 10SM CLR 20/06 A3000 RMK AO2 SLP154 T02000056
KYKM 190253Z 32018G22KT 10SM CLR 23/06 A2999 RMK AO2 SLP149 T02280056 53005
KYKM 190153Z 33013G22KT 10SM CLR 26/06 A2998 RMK AO2 SLP144 T02560056
KYKM 190053Z AUTO 33015KT 10SM CLR 27/07 A2997 RMK AO2 SLP141 T02720067
KYKM 182353Z 33012KT 10SM CLR 29/08 A2998 RMK AO2 SLP143 T02890083 10300 20261 56007
KYKM 182253Z 33010KT 10SM CLR 29/07 A2998 RMK AO2 SLP144 T02940067
KYKM 182153Z 33013KT 10SM CLR 29/07 A2999 RMK AO2 SLP146 T02940067
KYKM 182053Z 32007KT 10SM CLR 29/07 A3000 RMK AO2 SLP149 T02940072 58011
KYKM 181953Z 31008KT 10SM CLR 29/08 A3001 RMK AO2 SLP154 T02890078
KYKM 181853Z 28007KT 220V310 10SM CLR 28/08 A3002 RMK AO2 SLP157 T02780083
KYKM 181753Z 26007KT 10SM CLR 26/08 A3003 RMK AO2 SLP161 T02610078 10261 20178 58001
KYKM 181653Z 33008KT 280V010 10SM CLR 26/08 A3004 RMK AO2 SLP166 T02560078